createdAt,value
2023-08-30T00:11:07.644Z,100.00
2023-08-30T00:26:09.521Z,100.00
2023-08-30T00:41:11.457Z,100.00
2023-08-30T00:56:13.209Z,100.00
2023-08-30T01:11:14.951Z,100.00
2023-08-30T01:26:16.582Z,100.00
2023-08-30T01:41:18.258Z,100.00
2023-08-30T01:56:19.927Z,100.00
2023-08-30T02:11:21.597Z,100.00
2023-08-30T02:26:23.263Z,100.00
2023-08-30T02:41:24.920Z,100.00
2023-08-30T02:56:26.759Z,100.00
2023-08-30T03:11:28.433Z,100.00
2023-08-30T03:26:31.039Z,100.00
2023-08-30T03:41:32.681Z,100.00
2023-08-30T03:56:36.290Z,100.00
2023-08-30T04:11:37.969Z,100.00
2023-08-30T04:26:40.283Z,100.00
2023-08-30T04:41:42.009Z,100.00
2023-08-30T04:56:43.800Z,100.00
2023-08-30T05:11:46.267Z,100.00
2023-08-30T05:26:48.296Z,100.00
2023-08-30T05:41:51.265Z,100.00
2023-08-30T05:56:52.934Z,100.00
2023-08-30T06:11:54.705Z,100.00
2023-08-30T06:26:56.517Z,100.00
2023-08-30T06:41:58.240Z,100.00
2023-08-30T06:57:02.920Z,100.00
2023-08-30T07:12:04.573Z,100.00
2023-08-30T07:27:06.650Z,100.00
2023-08-30T07:42:08.342Z,100.00
2023-08-30T07:57:10.004Z,100.00
2023-08-30T08:12:11.629Z,100.00
2023-08-30T08:27:13.290Z,100.00
2023-08-30T08:42:16.550Z,100.00
2023-08-30T08:57:19.100Z,100.00
2023-08-30T09:12:20.957Z,100.00
2023-08-30T09:27:22.717Z,100.00
2023-08-30T09:42:24.437Z,100.00
2023-08-30T09:57:26.197Z,100.00
2023-08-30T10:12:27.984Z,100.00
2023-08-30T10:27:29.622Z,100.00
2023-08-30T10:42:31.308Z,100.00
2023-08-30T10:57:38.038Z,100.00
2023-08-30T11:12:39.686Z,100.00
2023-08-30T11:27:41.377Z,94.35
2023-08-30T11:42:43.074Z,92.33
2023-08-30T11:57:44.759Z,88.94
2023-08-30T12:12:46.799Z,83.46
2023-08-30T12:27:48.522Z,78.30
2023-08-30T12:42:50.224Z,86.39
2023-08-30T12:57:51.845Z,81.99
2023-08-30T13:12:53.579Z,100.00
2023-08-30T13:27:55.282Z,100.00
2023-08-30T13:42:56.940Z,100.00
2023-08-30T13:57:58.711Z,100.00
2023-08-30T14:13:00.362Z,100.00
2023-08-30T14:28:02.249Z,100.00
2023-08-30T14:43:03.994Z,100.00
2023-08-30T14:58:05.746Z,100.00
2023-08-30T15:13:08.118Z,100.00
2023-08-30T15:28:09.790Z,100.00
2023-08-30T15:43:11.864Z,100.00
2023-08-30T15:58:13.823Z,100.00
2023-08-30T16:13:18.284Z,100.00
2023-08-30T16:28:19.911Z,100.00
2023-08-30T16:43:21.620Z,100.00
2023-08-30T16:58:24.108Z,100.00
2023-08-30T17:13:26.038Z,100.00
2023-08-30T17:28:27.820Z,100.00
2023-08-30T17:43:29.611Z,100.00
2023-08-30T17:58:31.494Z,100.00
2023-08-30T18:13:33.203Z,100.00
2023-08-30T18:28:34.854Z,100.00
2023-08-30T18:43:36.513Z,100.00
2023-08-30T18:58:38.299Z,100.00
2023-08-30T19:13:40.569Z,100.00
2023-08-30T19:28:42.243Z,100.00
2023-08-30T19:43:43.880Z,100.00
2023-08-30T19:58:45.576Z,100.00
2023-08-30T20:13:47.238Z,100.00
2023-08-30T20:28:50.753Z,100.00
2023-08-30T20:43:52.778Z,100.00
2023-08-30T20:58:58.164Z,100.00
2023-08-30T21:14:00.733Z,100.00
2023-08-30T21:29:02.388Z,100.00
2023-08-30T21:44:04.015Z,100.00
2023-08-30T21:59:05.785Z,100.00
2023-08-30T22:14:07.817Z,100.00
2023-08-30T22:29:09.545Z,100.00
2023-08-30T22:44:11.572Z,100.00
2023-08-30T22:59:13.228Z,100.00
2023-08-30T23:14:15.041Z,100.00
2023-08-30T23:29:17.489Z,100.00
2023-08-30T23:44:19.524Z,100.00
2023-08-30T23:59:21.151Z,100.00
